sensor_id;sensor_type;location;lat;lon;timestamp;P1;durP1;ratioP1;P2;durP2;ratioP2
7471;SDS011;3777;48.722;8.110;2023-06-24T00:02:17;7.13;;;6.50;;
7471;SDS011;3777;48.722;8.110;2023-06-24T00:04:44;9.47;;;6.57;;
7471;SDS011;3777;48.722;8.110;2023-06-24T00:07:11;7.53;;;6.20;;
7471;SDS011;3777;48.722;8.110;2023-06-24T00:09:38;8.23;;;5.80;;
7471;SDS011;3777;48.722;8.110;2023-06-24T00:12:07;5.90;;;5.40;;
7471;SDS011;3777;48.722;8.110;2023-06-24T00:14:34;6.00;;;5.50;;
7471;SDS011;3777;48.722;8.110;2023-06-24T00:17:03;7.87;;;5.80;;
7471;SDS011;3777;48.722;8.110;2023-06-24T00:19:32;6.67;;;6.00;;
7471;SDS011;3777;48.722;8.110;2023-06-24T00:21:58;6.87;;;5.70;;
7471;SDS011;3777;48.722;8.110;2023-06-24T00:24:28;6.77;;;6.10;;
7471;SDS011;3777;48.722;8.110;2023-06-24T00:26:56;6.43;;;5.80;;
7471;SDS011;3777;48.722;8.110;2023-06-24T00:29:24;6.17;;;5.67;;
7471;SDS011;3777;48.722;8.110;2023-06-24T00:31:54;6.80;;;5.77;;
7471;SDS011;3777;48.722;8.110;2023-06-24T00:34:21;9.70;;;6.37;;
7471;SDS011;3777;48.722;8.110;2023-06-24T00:36:48;7.00;;;6.17;;
7471;SDS011;3777;48.722;8.110;2023-06-24T00:39:16;7.20;;;6.27;;
7471;SDS011;3777;48.722;8.110;2023-06-24T00:41:43;6.53;;;5.93;;
7471;SDS011;3777;48.722;8.110;2023-06-24T00:44:10;6.83;;;5.93;;
7471;SDS011;3777;48.722;8.110;2023-06-24T00:46:39;7.43;;;5.90;;
7471;SDS011;3777;48.722;8.110;2023-06-24T00:49:06;7.40;;;6.00;;
7471;SDS011;3777;48.722;8.110;2023-06-24T00:51:33;7.73;;;6.33;;
7471;SDS011;3777;48.722;8.110;2023-06-24T00:54:01;7.43;;;5.87;;
7471;SDS011;3777;48.722;8.110;2023-06-24T00:56:30;7.73;;;6.23;;
7471;SDS011;3777;48.722;8.110;2023-06-24T00:59:00;6.57;;;5.97;;
7471;SDS011;3777;48.722;8.110;2023-06-24T01:01:28;7.03;;;6.33;;
7471;SDS011;3777;48.722;8.110;2023-06-24T01:04:02;8.73;;;6.00;;
7471;SDS011;3777;48.722;8.110;2023-06-24T01:06:29;7.50;;;6.33;;
7471;SDS011;3777;48.722;8.110;2023-06-24T01:08:57;6.33;;;5.77;;
7471;SDS011;3777;48.722;8.110;2023-06-24T01:11:25;7.27;;;6.57;;
7471;SDS011;3777;48.722;8.110;2023-06-24T01:13:52;7.07;;;6.23;;
7471;SDS011;3777;48.722;8.110;2023-06-24T01:16:21;7.10;;;6.40;;
7471;SDS011;3777;48.722;8.110;2023-06-24T01:18:57;8.30;;;6.03;;
7471;SDS011;3777;48.722;8.110;2023-06-24T01:21:31;6.57;;;5.97;;
7471;SDS011;3777;48.722;8.110;2023-06-24T01:24:23;6.57;;;5.97;;
7471;SDS011;3777;48.722;8.110;2023-06-24T01:27:19;6.50;;;5.90;;
7471;SDS011;3777;48.722;8.110;2023-06-24T01:30:05;6.30;;;5.40;;
7471;SDS011;3777;48.722;8.110;2023-06-24T01:32:59;7.20;;;6.07;;
7471;SDS011;3777;48.722;8.110;2023-06-24T01:35:31;7.10;;;6.40;;
7471;SDS011;3777;48.722;8.110;2023-06-24T01:38:01;6.97;;;6.37;;
7471;SDS011;3777;48.722;8.110;2023-06-24T01:40:34;7.10;;;6.40;;
7471;SDS011;3777;48.722;8.110;2023-06-24T01:43:05;6.80;;;5.87;;
7471;SDS011;3777;48.722;8.110;2023-06-24T01:45:36;9.80;;;6.20;;
7471;SDS011;3777;48.722;8.110;2023-06-24T01:48:09;7.00;;;6.27;;
7471;SDS011;3777;48.722;8.110;2023-06-24T01:50:42;6.67;;;6.07;;
7471;SDS011;3777;48.722;8.110;2023-06-24T01:53:11;6.87;;;6.03;;
7471;SDS011;3777;48.722;8.110;2023-06-24T01:55:39;8.03;;;6.30;;
7471;SDS011;3777;48.722;8.110;2023-06-24T01:58:08;7.50;;;6.57;;
7471;SDS011;3777;48.722;8.110;2023-06-24T02:00:38;7.20;;;6.60;;
7471;SDS011;3777;48.722;8.110;2023-06-24T02:03:05;11.07;;;6.57;;
7471;SDS011;3777;48.722;8.110;2023-06-24T02:05:36;7.80;;;6.43;;
7471;SDS011;3777;48.722;8.110;2023-06-24T02:08:06;7.53;;;6.73;;
7471;SDS011;3777;48.722;8.110;2023-06-24T02:10:36;7.23;;;6.30;;
7471;SDS011;3777;48.722;8.110;2023-06-24T02:13:05;10.17;;;7.30;;
7471;SDS011;3777;48.722;8.110;2023-06-24T02:15:35;7.43;;;6.50;;
7471;SDS011;3777;48.722;8.110;2023-06-24T02:18:05;7.57;;;6.87;;
7471;SDS011;3777;48.722;8.110;2023-06-24T02:20:36;7.30;;;6.60;;
7471;SDS011;3777;48.722;8.110;2023-06-24T02:23:04;7.83;;;7.13;;
7471;SDS011;3777;48.722;8.110;2023-06-24T02:25:35;7.50;;;6.53;;
7471;SDS011;3777;48.722;8.110;2023-06-24T02:28:04;8.83;;;6.83;;
7471;SDS011;3777;48.722;8.110;2023-06-24T02:30:32;7.53;;;6.83;;
7471;SDS011;3777;48.722;8.110;2023-06-24T02:33:00;7.93;;;6.20;;
7471;SDS011;3777;48.722;8.110;2023-06-24T02:35:27;7.50;;;6.80;;
7471;SDS011;3777;48.722;8.110;2023-06-24T02:37:56;7.67;;;6.87;;
7471;SDS011;3777;48.722;8.110;2023-06-24T02:40:23;7.87;;;7.00;;
7471;SDS011;3777;48.722;8.110;2023-06-24T02:42:51;8.03;;;6.93;;
7471;SDS011;3777;48.722;8.110;2023-06-24T02:45:18;8.07;;;6.73;;
7471;SDS011;3777;48.722;8.110;2023-06-24T02:47:45;7.20;;;6.50;;
7471;SDS011;3777;48.722;8.110;2023-06-24T02:50:13;8.20;;;6.57;;
7471;SDS011;3777;48.722;8.110;2023-06-24T02:52:41;10.77;;;7.20;;
7471;SDS011;3777;48.722;8.110;2023-06-24T02:55:10;11.57;;;7.07;;
7471;SDS011;3777;48.722;8.110;2023-06-24T02:57:37;9.10;;;6.67;;
7471;SDS011;3777;48.722;8.110;2023-06-24T03:00:07;9.90;;;6.40;;
7471;SDS011;3777;48.722;8.110;2023-06-24T03:02:37;10.10;;;6.17;;
7471;SDS011;3777;48.722;8.110;2023-06-24T03:05:05;14.23;;;7.27;;
7471;SDS011;3777;48.722;8.110;2023-06-24T03:07:33;10.93;;;7.20;;
7471;SDS011;3777;48.722;8.110;2023-06-24T03:10:10;12.93;;;7.23;;
7471;SDS011;3777;48.722;8.110;2023-06-24T03:12:37;12.23;;;7.30;;
7471;SDS011;3777;48.722;8.110;2023-06-24T03:15:04;8.67;;;6.87;;
7471;SDS011;3777;48.722;8.110;2023-06-24T03:17:32;11.43;;;6.97;;
7471;SDS011;3777;48.722;8.110;2023-06-24T03:19:59;11.07;;;7.40;;
7471;SDS011;3777;48.722;8.110;2023-06-24T03:22:25;8.13;;;6.73;;
7471;SDS011;3777;48.722;8.110;2023-06-24T03:24:52;10.73;;;7.07;;
7471;SDS011;3777;48.722;8.110;2023-06-24T03:27:21;7.50;;;6.77;;
7471;SDS011;3777;48.722;8.110;2023-06-24T03:29:48;11.67;;;7.10;;
7471;SDS011;3777;48.722;8.110;2023-06-24T03:32:15;9.70;;;7.27;;
7471;SDS011;3777;48.722;8.110;2023-06-24T03:34:42;7.73;;;6.97;;
7471;SDS011;3777;48.722;8.110;2023-06-24T03:37:09;7.70;;;6.50;;
7471;SDS011;3777;48.722;8.110;2023-06-24T03:39:36;7.43;;;6.73;;
7471;SDS011;3777;48.722;8.110;2023-06-24T03:42:03;9.07;;;6.70;;
7471;SDS011;3777;48.722;8.110;2023-06-24T03:44:32;12.07;;;6.67;;
7471;SDS011;3777;48.722;8.110;2023-06-24T03:46:59;10.60;;;6.90;;
7471;SDS011;3777;48.722;8.110;2023-06-24T03:49:26;8.83;;;6.73;;
7471;SDS011;3777;48.722;8.110;2023-06-24T03:51:53;9.23;;;7.57;;
7471;SDS011;3777;48.722;8.110;2023-06-24T03:54:20;9.70;;;7.13;;
7471;SDS011;3777;48.722;8.110;2023-06-24T03:56:47;12.03;;;7.03;;
7471;SDS011;3777;48.722;8.110;2023-06-24T03:59:16;10.33;;;7.20;;
7471;SDS011;3777;48.722;8.110;2023-06-24T04:01:45;7.27;;;6.10;;
7471;SDS011;3777;48.722;8.110;2023-06-24T04:04:12;9.77;;;6.70;;
7471;SDS011;3777;48.722;8.110;2023-06-24T04:06:39;9.17;;;6.47;;
7471;SDS011;3777;48.722;8.110;2023-06-24T04:09:05;8.47;;;6.77;;
7471;SDS011;3777;48.722;8.110;2023-06-24T04:11:35;11.03;;;7.03;;
7471;SDS011;3777;48.722;8.110;2023-06-24T04:14:01;10.57;;;7.43;;
7471;SDS011;3777;48.722;8.110;2023-06-24T04:16:31;9.77;;;7.17;;
7471;SDS011;3777;48.722;8.110;2023-06-24T04:19:00;8.50;;;7.10;;
7471;SDS011;3777;48.722;8.110;2023-06-24T04:21:26;11.33;;;7.13;;
7471;SDS011;3777;48.722;8.110;2023-06-24T04:23:53;7.57;;;6.73;;
7471;SDS011;3777;48.722;8.110;2023-06-24T04:26:20;9.63;;;6.30;;
7471;SDS011;3777;48.722;8.110;2023-06-24T04:28:47;11.80;;;7.03;;
7471;SDS011;3777;48.722;8.110;2023-06-24T04:31:14;8.30;;;6.63;;
7471;SDS011;3777;48.722;8.110;2023-06-24T04:33:42;9.07;;;7.47;;
7471;SDS011;3777;48.722;8.110;2023-06-24T04:36:10;12.83;;;7.80;;
7471;SDS011;3777;48.722;8.110;2023-06-24T04:38:37;8.90;;;7.13;;
7471;SDS011;3777;48.722;8.110;2023-06-24T04:41:04;7.50;;;6.73;;
7471;SDS011;3777;48.722;8.110;2023-06-24T04:43:31;11.53;;;8.27;;
7471;SDS011;3777;48.722;8.110;2023-06-24T04:45:58;8.90;;;6.83;;
7471;SDS011;3777;48.722;8.110;2023-06-24T04:48:26;10.27;;;6.90;;
7471;SDS011;3777;48.722;8.110;2023-06-24T04:50:53;10.30;;;7.07;;
7471;SDS011;3777;48.722;8.110;2023-06-24T04:53:22;9.83;;;6.67;;
7471;SDS011;3777;48.722;8.110;2023-06-24T04:55:49;10.70;;;8.03;;
7471;SDS011;3777;48.722;8.110;2023-06-24T04:58:16;12.00;;;7.70;;
7471;SDS011;3777;48.722;8.110;2023-06-24T05:00:43;8.97;;;6.93;;
7471;SDS011;3777;48.722;8.110;2023-06-24T05:03:10;9.70;;;7.33;;
7471;SDS011;3777;48.722;8.110;2023-06-24T05:05:37;11.17;;;7.30;;
7471;SDS011;3777;48.722;8.110;2023-06-24T05:08:04;9.47;;;7.37;;
7471;SDS011;3777;48.722;8.110;2023-06-24T05:10:32;9.00;;;7.07;;
7471;SDS011;3777;48.722;8.110;2023-06-24T05:12:59;8.53;;;7.03;;
7471;SDS011;3777;48.722;8.110;2023-06-24T05:15:26;9.70;;;7.30;;
7471;SDS011;3777;48.722;8.110;2023-06-24T05:17:53;10.07;;;7.70;;
7471;SDS011;3777;48.722;8.110;2023-06-24T05:20:20;9.43;;;8.23;;
7471;SDS011;3777;48.722;8.110;2023-06-24T05:22:47;11.33;;;7.80;;
7471;SDS011;3777;48.722;8.110;2023-06-24T05:25:14;8.83;;;6.93;;
7471;SDS011;3777;48.722;8.110;2023-06-24T05:27:42;10.67;;;7.70;;
7471;SDS011;3777;48.722;8.110;2023-06-24T05:30:10;12.80;;;7.60;;
7471;SDS011;3777;48.722;8.110;2023-06-24T05:32:39;10.07;;;7.57;;
7471;SDS011;3777;48.722;8.110;2023-06-24T05:35:06;9.57;;;7.40;;
7471;SDS011;3777;48.722;8.110;2023-06-24T05:37:33;9.20;;;7.35;;
7471;SDS011;3777;48.722;8.110;2023-06-24T05:40:01;8.85;;;6.50;;
7471;SDS011;3777;48.722;8.110;2023-06-24T05:42:30;7.35;;;6.65;;
7471;SDS011;3777;48.722;8.110;2023-06-24T05:44:58;7.53;;;6.80;;
7471;SDS011;3777;48.722;8.110;2023-06-24T05:47:28;7.18;;;6.15;;
7471;SDS011;3777;48.722;8.110;2023-06-24T05:49:55;9.43;;;6.78;;
7471;SDS011;3777;48.722;8.110;2023-06-24T05:52:23;8.98;;;6.30;;
7471;SDS011;3777;48.722;8.110;2023-06-24T05:54:50;8.52;;;6.53;;
7471;SDS011;3777;48.722;8.110;2023-06-24T05:57:17;8.38;;;6.50;;
7471;SDS011;3777;48.722;8.110;2023-06-24T05:59:44;8.48;;;6.30;;
7471;SDS011;3777;48.722;8.110;2023-06-24T06:02:12;6.88;;;6.28;;
7471;SDS011;3777;48.722;8.110;2023-06-24T06:04:39;8.70;;;6.45;;
7471;SDS011;3777;48.722;8.110;2023-06-24T06:07:06;9.02;;;6.55;;
7471;SDS011;3777;48.722;8.110;2023-06-24T06:09:33;6.63;;;5.90;;
7471;SDS011;3777;48.722;8.110;2023-06-24T06:12:00;7.57;;;6.38;;
7471;SDS011;3777;48.722;8.110;2023-06-24T06:14:26;6.93;;;6.30;;
7471;SDS011;3777;48.722;8.110;2023-06-24T06:16:53;10.95;;;7.07;;
7471;SDS011;3777;48.722;8.110;2023-06-24T06:19:22;6.50;;;5.90;;
7471;SDS011;3777;48.722;8.110;2023-06-24T06:21:49;7.10;;;6.40;;
7471;SDS011;3777;48.722;8.110;2023-06-24T06:24:16;7.47;;;6.78;;
7471;SDS011;3777;48.722;8.110;2023-06-24T06:26:43;7.05;;;5.70;;
7471;SDS011;3777;48.722;8.110;2023-06-24T06:29:10;8.75;;;6.00;;
7471;SDS011;3777;48.722;8.110;2023-06-24T06:31:37;8.88;;;6.85;;
7471;SDS011;3777;48.722;8.110;2023-06-24T06:34:04;8.07;;;6.07;;
7471;SDS011;3777;48.722;8.110;2023-06-24T06:36:33;6.95;;;5.30;;
7471;SDS011;3777;48.722;8.110;2023-06-24T06:39:00;6.00;;;5.50;;
7471;SDS011;3777;48.722;8.110;2023-06-24T06:41:27;7.35;;;6.57;;
7471;SDS011;3777;48.722;8.110;2023-06-24T06:43:54;6.72;;;6.03;;
7471;SDS011;3777;48.722;8.110;2023-06-24T06:46:21;7.50;;;6.70;;
7471;SDS011;3777;48.722;8.110;2023-06-24T06:48:48;7.80;;;6.40;;
7471;SDS011;3777;48.722;8.110;2023-06-24T06:51:15;5.72;;;5.10;;
7471;SDS011;3777;48.722;8.110;2023-06-24T06:53:45;8.20;;;5.80;;
7471;SDS011;3777;48.722;8.110;2023-06-24T06:56:16;6.75;;;5.85;;
7471;SDS011;3777;48.722;8.110;2023-06-24T06:58:43;6.50;;;5.90;;
7471;SDS011;3777;48.722;8.110;2023-06-24T07:01:10;5.90;;;5.30;;
7471;SDS011;3777;48.722;8.110;2023-06-24T07:03:37;5.70;;;5.20;;
7471;SDS011;3777;48.722;8.110;2023-06-24T07:06:05;7.45;;;5.80;;
7471;SDS011;3777;48.722;8.110;2023-06-24T07:08:32;6.93;;;5.80;;
7471;SDS011;3777;48.722;8.110;2023-06-24T07:11:01;6.85;;;4.95;;
7471;SDS011;3777;48.722;8.110;2023-06-24T07:13:28;5.55;;;4.88;;
7471;SDS011;3777;48.722;8.110;2023-06-24T07:15:55;6.30;;;5.38;;
7471;SDS011;3777;48.722;8.110;2023-06-24T07:18:22;6.32;;;4.88;;
7471;SDS011;3777;48.722;8.110;2023-06-24T07:20:49;5.30;;;4.53;;
7471;SDS011;3777;48.722;8.110;2023-06-24T07:23:16;5.43;;;4.93;;
7471;SDS011;3777;48.722;8.110;2023-06-24T07:25:43;5.80;;;4.60;;
7471;SDS011;3777;48.722;8.110;2023-06-24T07:28:11;5.35;;;4.57;;
7471;SDS011;3777;48.722;8.110;2023-06-24T07:30:38;4.95;;;4.30;;
7471;SDS011;3777;48.722;8.110;2023-06-24T07:33:07;6.50;;;4.72;;
7471;SDS011;3777;48.722;8.110;2023-06-24T07:35:34;7.47;;;5.13;;
7471;SDS011;3777;48.722;8.110;2023-06-24T07:38:01;6.32;;;5.35;;
7471;SDS011;3777;48.722;8.110;2023-06-24T07:40:28;7.43;;;4.47;;
7471;SDS011;3777;48.722;8.110;2023-06-24T07:42:55;5.90;;;4.60;;
7471;SDS011;3777;48.722;8.110;2023-06-24T07:45:23;7.40;;;4.38;;
7471;SDS011;3777;48.722;8.110;2023-06-24T07:47:50;4.70;;;4.30;;
7471;SDS011;3777;48.722;8.110;2023-06-24T07:50:17;4.72;;;4.25;;
7471;SDS011;3777;48.722;8.110;2023-06-24T07:52:44;4.45;;;3.85;;
7471;SDS011;3777;48.722;8.110;2023-06-24T07:55:11;5.03;;;4.30;;
7471;SDS011;3777;48.722;8.110;2023-06-24T07:57:38;5.75;;;4.05;;
7471;SDS011;3777;48.722;8.110;2023-06-24T08:00:06;4.97;;;4.13;;
7471;SDS011;3777;48.722;8.110;2023-06-24T08:02:36;5.30;;;3.85;;
7471;SDS011;3777;48.722;8.110;2023-06-24T08:05:03;5.97;;;4.25;;
7471;SDS011;3777;48.722;8.110;2023-06-24T08:07:31;4.60;;;4.15;;
7471;SDS011;3777;48.722;8.110;2023-06-24T08:09:58;5.25;;;3.72;;
7471;SDS011;3777;48.722;8.110;2023-06-24T08:12:25;4.20;;;3.80;;
7471;SDS011;3777;48.722;8.110;2023-06-24T08:14:52;4.82;;;3.85;;
7471;SDS011;3777;48.722;8.110;2023-06-24T08:17:19;4.10;;;3.70;;
7471;SDS011;3777;48.722;8.110;2023-06-24T08:19:47;3.92;;;3.53;;
7471;SDS011;3777;48.722;8.110;2023-06-24T08:22:14;5.07;;;3.90;;
7471;SDS011;3777;48.722;8.110;2023-06-24T08:24:41;5.50;;;4.22;;
7471;SDS011;3777;48.722;8.110;2023-06-24T08:27:08;4.25;;;3.75;;
7471;SDS011;3777;48.722;8.110;2023-06-24T08:29:35;4.05;;;3.50;;
7471;SDS011;3777;48.722;8.110;2023-06-24T08:32:03;6.03;;;3.55;;
7471;SDS011;3777;48.722;8.110;2023-06-24T08:34:31;5.00;;;3.25;;
7471;SDS011;3777;48.722;8.110;2023-06-24T08:37:00;3.95;;;3.55;;
7471;SDS011;3777;48.722;8.110;2023-06-24T08:39:27;3.97;;;3.58;;
7471;SDS011;3777;48.722;8.110;2023-06-24T08:41:54;4.15;;;3.50;;
7471;SDS011;3777;48.722;8.110;2023-06-24T08:44:21;3.47;;;3.17;;
7471;SDS011;3777;48.722;8.110;2023-06-24T08:46:48;3.70;;;3.30;;
7471;SDS011;3777;48.722;8.110;2023-06-24T08:49:17;3.78;;;3.47;;
7471;SDS011;3777;48.722;8.110;2023-06-24T08:51:54;4.47;;;3.25;;
7471;SDS011;3777;48.722;8.110;2023-06-24T08:54:30;4.72;;;3.30;;
7471;SDS011;3777;48.722;8.110;2023-06-24T08:57:00;3.75;;;3.28;;
7471;SDS011;3777;48.722;8.110;2023-06-24T11:13:10;2.80;;;2.50;;
7471;SDS011;3777;48.722;8.110;2023-06-24T11:15:37;3.70;;;2.88;;
7471;SDS011;3777;48.722;8.110;2023-06-24T11:18:05;3.35;;;2.63;;
7471;SDS011;3777;48.722;8.110;2023-06-24T11:20:35;3.03;;;2.78;;
7471;SDS011;3777;48.722;8.110;2023-06-24T11:23:06;3.20;;;2.90;;
7471;SDS011;3777;48.722;8.110;2023-06-24T11:25:38;3.15;;;2.95;;
7471;SDS011;3777;48.722;8.110;2023-06-24T11:28:13;3.10;;;2.80;;
7471;SDS011;3777;48.722;8.110;2023-06-24T11:30:41;3.50;;;2.95;;
7471;SDS011;3777;48.722;8.110;2023-06-24T11:33:07;3.33;;;3.00;;
7471;SDS011;3777;48.722;8.110;2023-06-24T11:35:36;3.38;;;3.08;;
7471;SDS011;3777;48.722;8.110;2023-06-24T11:38:03;3.30;;;3.00;;
7471;SDS011;3777;48.722;8.110;2023-06-24T11:40:30;3.38;;;3.08;;
7471;SDS011;3777;48.722;8.110;2023-06-24T11:43:00;3.33;;;3.00;;
7471;SDS011;3777;48.722;8.110;2023-06-24T11:45:28;3.40;;;3.10;;
7471;SDS011;3777;48.722;8.110;2023-06-24T11:48:01;3.65;;;3.35;;
7471;SDS011;3777;48.722;8.110;2023-06-24T11:50:30;3.30;;;3.00;;
7471;SDS011;3777;48.722;8.110;2023-06-24T11:52:57;4.63;;;3.47;;
7471;SDS011;3777;48.722;8.110;2023-06-24T11:55:25;3.88;;;3.45;;
7471;SDS011;3777;48.722;8.110;2023-06-24T11:57:55;3.63;;;3.20;;
7471;SDS011;3777;48.722;8.110;2023-06-24T12:00:23;3.28;;;2.97;;
7471;SDS011;3777;48.722;8.110;2023-06-24T12:02:57;4.25;;;3.20;;
7471;SDS011;3777;48.722;8.110;2023-06-24T12:05:28;3.47;;;3.17;;
7471;SDS011;3777;48.722;8.110;2023-06-24T12:07:57;3.70;;;3.40;;
7471;SDS011;3777;48.722;8.110;2023-06-24T12:10:24;3.72;;;3.42;;
7471;SDS011;3777;48.722;8.110;2023-06-24T12:12:55;4.10;;;3.33;;
7471;SDS011;3777;48.722;8.110;2023-06-24T12:15:22;3.25;;;3.00;;
7471;SDS011;3777;48.722;8.110;2023-06-24T12:17:49;5.15;;;3.00;;
7471;SDS011;3777;48.722;8.110;2023-06-24T12:20:18;3.50;;;3.05;;
7471;SDS011;3777;48.722;8.110;2023-06-24T12:22:45;3.65;;;3.35;;
7471;SDS011;3777;48.722;8.110;2023-06-24T12:25:12;3.53;;;3.22;;
7471;SDS011;3777;48.722;8.110;2023-06-24T12:27:41;4.03;;;3.47;;
7471;SDS011;3777;48.722;8.110;2023-06-24T12:30:09;3.58;;;3.28;;
7471;SDS011;3777;48.722;8.110;2023-06-24T12:32:37;3.90;;;3.45;;
7471;SDS011;3777;48.722;8.110;2023-06-24T12:35:05;3.30;;;3.00;;
7471;SDS011;3777;48.722;8.110;2023-06-24T12:37:35;3.65;;;3.20;;
7471;SDS011;3777;48.722;8.110;2023-06-24T12:40:02;3.40;;;3.10;;
7471;SDS011;3777;48.722;8.110;2023-06-24T12:42:30;3.40;;;3.10;;
7471;SDS011;3777;48.722;8.110;2023-06-24T12:44:57;3.60;;;3.30;;
7471;SDS011;3777;48.722;8.110;2023-06-24T12:47:24;3.55;;;3.25;;
7471;SDS011;3777;48.722;8.110;2023-06-24T12:49:51;4.47;;;3.20;;
7471;SDS011;3777;48.722;8.110;2023-06-24T12:52:18;3.50;;;3.20;;
7471;SDS011;3777;48.722;8.110;2023-06-24T12:54:46;2.97;;;2.72;;
7471;SDS011;3777;48.722;8.110;2023-06-24T12:57:14;3.60;;;3.17;;
7471;SDS011;3777;48.722;8.110;2023-06-24T12:59:41;3.83;;;3.53;;
7471;SDS011;3777;48.722;8.110;2023-06-24T13:02:07;3.42;;;3.13;;
7471;SDS011;3777;48.722;8.110;2023-06-24T13:04:34;5.18;;;3.17;;
7471;SDS011;3777;48.722;8.110;2023-06-24T13:07:01;3.50;;;3.20;;
7471;SDS011;3777;48.722;8.110;2023-06-24T13:09:29;6.22;;;3.45;;
7471;SDS011;3777;48.722;8.110;2023-06-24T13:11:58;3.55;;;3.20;;
7471;SDS011;3777;48.722;8.110;2023-06-24T13:14:25;4.03;;;3.25;;
7471;SDS011;3777;48.722;8.110;2023-06-24T13:16:53;4.05;;;3.30;;
7471;SDS011;3777;48.722;8.110;2023-06-24T13:19:20;3.45;;;3.15;;
7471;SDS011;3777;48.722;8.110;2023-06-24T13:21:47;3.47;;;3.10;;
7471;SDS011;3777;48.722;8.110;2023-06-24T13:24:14;3.55;;;3.25;;
7471;SDS011;3777;48.722;8.110;2023-06-24T13:26:41;3.35;;;3.05;;
7471;SDS011;3777;48.722;8.110;2023-06-24T13:29:09;3.40;;;3.10;;
7471;SDS011;3777;48.722;8.110;2023-06-24T13:31:36;3.50;;;3.20;;
7471;SDS011;3777;48.722;8.110;2023-06-24T13:34:03;3.25;;;2.95;;
7471;SDS011;3777;48.722;8.110;2023-06-24T13:36:31;3.60;;;3.30;;
7471;SDS011;3777;48.722;8.110;2023-06-24T13:39:00;3.30;;;3.00;;
7471;SDS011;3777;48.722;8.110;2023-06-24T13:41:28;3.70;;;3.30;;
7471;SDS011;3777;48.722;8.110;2023-06-24T13:43:57;3.70;;;2.95;;
7471;SDS011;3777;48.722;8.110;2023-06-24T13:46:26;3.40;;;3.10;;
7471;SDS011;3777;48.722;8.110;2023-06-24T13:48:53;3.65;;;3.30;;
7471;SDS011;3777;48.722;8.110;2023-06-24T13:51:20;4.22;;;3.30;;
7471;SDS011;3777;48.722;8.110;2023-06-24T13:53:48;3.53;;;3.22;;
7471;SDS011;3777;48.722;8.110;2023-06-24T13:56:17;3.67;;;3.38;;
7471;SDS011;3777;48.722;8.110;2023-06-24T13:58:44;3.92;;;3.00;;
7471;SDS011;3777;48.722;8.110;2023-06-24T14:01:11;3.50;;;3.20;;
7471;SDS011;3777;48.722;8.110;2023-06-24T14:03:39;3.30;;;3.00;;
7471;SDS011;3777;48.722;8.110;2023-06-24T14:06:06;3.30;;;3.00;;
7471;SDS011;3777;48.722;8.110;2023-06-24T14:08:33;3.75;;;3.10;;
7471;SDS011;3777;48.722;8.110;2023-06-24T14:11:01;3.83;;;3.08;;
7471;SDS011;3777;48.722;8.110;2023-06-24T14:13:29;3.45;;;3.10;;
7471;SDS011;3777;48.722;8.110;2023-06-24T14:15:56;3.78;;;3.35;;
7471;SDS011;3777;48.722;8.110;2023-06-24T14:18:23;3.42;;;3.13;;
7471;SDS011;3777;48.722;8.110;2023-06-24T14:20:52;4.93;;;3.53;;
7471;SDS011;3777;48.722;8.110;2023-06-24T14:23:19;4.95;;;3.20;;
7471;SDS011;3777;48.722;8.110;2023-06-24T14:25:46;3.83;;;3.50;;
7471;SDS011;3777;48.722;8.110;2023-06-24T14:28:13;3.90;;;3.50;;
7471;SDS011;3777;48.722;8.110;2023-06-24T14:30:40;4.00;;;3.55;;
7471;SDS011;3777;48.722;8.110;2023-06-24T14:33:07;3.83;;;3.20;;
7471;SDS011;3777;48.722;8.110;2023-06-24T14:35:34;3.60;;;3.30;;
7471;SDS011;3777;48.722;8.110;2023-06-24T14:38:03;4.53;;;3.40;;
7471;SDS011;3777;48.722;8.110;2023-06-24T14:40:30;5.28;;;3.83;;
7471;SDS011;3777;48.722;8.110;2023-06-24T14:42:57;4.60;;;3.25;;
7471;SDS011;3777;48.722;8.110;2023-06-24T14:45:24;3.55;;;3.25;;
7471;SDS011;3777;48.722;8.110;2023-06-24T14:47:51;4.03;;;3.22;;
7471;SDS011;3777;48.722;8.110;2023-06-24T14:50:18;3.83;;;3.42;;
7471;SDS011;3777;48.722;8.110;2023-06-24T14:52:46;3.60;;;3.28;;
7471;SDS011;3777;48.722;8.110;2023-06-24T14:55:14;4.15;;;3.30;;
7471;SDS011;3777;48.722;8.110;2023-06-24T14:57:41;4.95;;;3.50;;
7471;SDS011;3777;48.722;8.110;2023-06-24T15:00:08;3.60;;;3.30;;
7471;SDS011;3777;48.722;8.110;2023-06-24T15:02:37;4.13;;;3.20;;
7471;SDS011;3777;48.722;8.110;2023-06-24T15:05:04;3.72;;;3.42;;
7471;SDS011;3777;48.722;8.110;2023-06-24T15:07:31;3.78;;;3.47;;
7471;SDS011;3777;48.722;8.110;2023-06-24T15:09:58;5.50;;;3.70;;
7471;SDS011;3777;48.722;8.110;2023-06-24T15:12:27;3.70;;;3.40;;
7471;SDS011;3777;48.722;8.110;2023-06-24T15:14:54;4.32;;;3.60;;
7471;SDS011;3777;48.722;8.110;2023-06-24T15:17:21;4.85;;;3.75;;
7471;SDS011;3777;48.722;8.110;2023-06-24T15:19:48;3.90;;;3.60;;
7471;SDS011;3777;48.722;8.110;2023-06-24T15:22:15;5.25;;;3.45;;
7471;SDS011;3777;48.722;8.110;2023-06-24T15:24:42;4.13;;;3.70;;
7471;SDS011;3777;48.722;8.110;2023-06-24T15:27:10;3.75;;;3.45;;
7471;SDS011;3777;48.722;8.110;2023-06-24T15:29:38;3.70;;;3.40;;
7471;SDS011;3777;48.722;8.110;2023-06-24T15:32:05;4.38;;;3.97;;
7471;SDS011;3777;48.722;8.110;2023-06-24T15:34:33;4.30;;;3.28;;
7471;SDS011;3777;48.722;8.110;2023-06-24T15:36:59;3.80;;;3.30;;
7471;SDS011;3777;48.722;8.110;2023-06-24T15:39:26;4.40;;;3.72;;
7471;SDS011;3777;48.722;8.110;2023-06-24T15:41:53;3.90;;;3.40;;
7471;SDS011;3777;48.722;8.110;2023-06-24T15:44:20;3.60;;;3.30;;
7471;SDS011;3777;48.722;8.110;2023-06-24T15:46:49;3.85;;;3.45;;
7471;SDS011;3777;48.722;8.110;2023-06-24T15:49:17;4.00;;;3.67;;
7471;SDS011;3777;48.722;8.110;2023-06-24T15:51:44;3.70;;;3.40;;
7471;SDS011;3777;48.722;8.110;2023-06-24T15:54:11;3.45;;;3.15;;
7471;SDS011;3777;48.722;8.110;2023-06-24T15:56:38;3.97;;;3.38;;
7471;SDS011;3777;48.722;8.110;2023-06-24T15:59:06;4.22;;;3.33;;
7471;SDS011;3777;48.722;8.110;2023-06-24T16:01:32;4.03;;;3.38;;
7471;SDS011;3777;48.722;8.110;2023-06-24T16:04:01;4.65;;;3.83;;
7471;SDS011;3777;48.722;8.110;2023-06-24T16:06:28;3.95;;;3.60;;
7471;SDS011;3777;48.722;8.110;2023-06-24T16:08:55;4.38;;;3.67;;
7471;SDS011;3777;48.722;8.110;2023-06-24T16:11:22;4.03;;;3.70;;
7471;SDS011;3777;48.722;8.110;2023-06-24T16:13:49;3.90;;;3.60;;
7471;SDS011;3777;48.722;8.110;2023-06-24T16:16:16;4.03;;;3.40;;
7471;SDS011;3777;48.722;8.110;2023-06-24T16:18:43;3.75;;;3.45;;
7471;SDS011;3777;48.722;8.110;2023-06-24T16:21:12;3.95;;;3.55;;
7471;SDS011;3777;48.722;8.110;2023-06-24T16:23:39;3.58;;;3.25;;
7471;SDS011;3777;48.722;8.110;2023-06-24T16:26:06;3.80;;;3.50;;
7471;SDS011;3777;48.722;8.110;2023-06-24T16:28:33;5.53;;;3.67;;
7471;SDS011;3777;48.722;8.110;2023-06-24T16:31:00;5.30;;;3.50;;
7471;SDS011;3777;48.722;8.110;2023-06-24T16:33:27;5.00;;;3.78;;
7471;SDS011;3777;48.722;8.110;2023-06-24T16:35:54;3.88;;;3.58;;
7471;SDS011;3777;48.722;8.110;2023-06-24T16:38:22;4.13;;;3.67;;
7471;SDS011;3777;48.722;8.110;2023-06-24T16:40:49;3.90;;;3.50;;
7471;SDS011;3777;48.722;8.110;2023-06-24T16:43:16;3.90;;;3.33;;
7471;SDS011;3777;48.722;8.110;2023-06-24T16:45:43;3.97;;;3.47;;
7471;SDS011;3777;48.722;8.110;2023-06-24T16:48:10;4.70;;;3.85;;
7471;SDS011;3777;48.722;8.110;2023-06-24T16:50:37;4.15;;;3.72;;
7471;SDS011;3777;48.722;8.110;2023-06-24T16:53:04;3.78;;;3.38;;
7471;SDS011;3777;48.722;8.110;2023-06-24T16:55:32;3.50;;;3.20;;
7471;SDS011;3777;48.722;8.110;2023-06-24T16:57:59;3.58;;;3.28;;
7471;SDS011;3777;48.722;8.110;2023-06-24T17:00:27;4.57;;;3.70;;
7471;SDS011;3777;48.722;8.110;2023-06-24T17:02:54;6.65;;;3.70;;
7471;SDS011;3777;48.722;8.110;2023-06-24T17:05:21;3.83;;;3.42;;
7471;SDS011;3777;48.722;8.110;2023-06-24T17:07:48;3.63;;;3.33;;
7471;SDS011;3777;48.722;8.110;2023-06-24T17:10:15;5.28;;;3.40;;
7471;SDS011;3777;48.722;8.110;2023-06-24T17:12:43;4.97;;;3.40;;
7471;SDS011;3777;48.722;8.110;2023-06-24T17:15:10;4.30;;;3.60;;
7471;SDS011;3777;48.722;8.110;2023-06-24T17:17:37;3.92;;;3.30;;
7471;SDS011;3777;48.722;8.110;2023-06-24T17:20:04;4.60;;;3.55;;
7471;SDS011;3777;48.722;8.110;2023-06-24T17:22:32;5.75;;;3.38;;
7471;SDS011;3777;48.722;8.110;2023-06-24T17:24:59;3.90;;;3.40;;
7471;SDS011;3777;48.722;8.110;2023-06-24T17:27:26;3.75;;;3.30;;
7471;SDS011;3777;48.722;8.110;2023-06-24T17:29:58;4.30;;;3.60;;
7471;SDS011;3777;48.722;8.110;2023-06-24T17:32:25;4.28;;;3.88;;
7471;SDS011;3777;48.722;8.110;2023-06-24T17:34:52;3.85;;;3.53;;